Time;durP1;ratioP1;P1;durP2;ratioP2;P2;SDS_P1;SDS_P2;PMS_P1;PMS_P2;Temp;Humidity;BMP_temperature;BMP_pressure;BME280_temperature;BME280_humidity;BME280_pressure;Samples;Min_cycle;Max_cycle;Signal;HPM_P1;HPM_P2
2021/09/16 00:00:44;;;;;;;7.53;4.63;;;;;;;22.00;61.37;100623.34;4980029;28;20107;-71
2021/09/16 00:03:12;;;;;;;4.97;4.20;;;;;;;21.98;62.04;100606.81;4979721;28;20469;-71
2021/09/16 00:05:41;;;;;;;5.07;4.68;;;;;;;22.03;62.66;100614.00;4980006;28;20030;-71
2021/09/16 00:08:08;;;;;;;5.63;5.10;;;;;;;22.01;63.29;100605.16;4979982;28;20030;-71
2021/09/16 00:10:38;;;;;;;5.78;5.22;;;;;;;21.98;64.38;100616.09;4998042;28;20030;-71
2021/09/16 00:13:04;;;;;;;5.68;5.07;;;;;;;22.12;64.85;100608.63;4979929;28;20059;-71
2021/09/16 00:15:30;;;;;;;5.75;5.18;;;;;;;22.15;64.57;100596.41;4979784;28;20171;-71
2021/09/16 00:17:58;;;;;;;6.68;5.70;;;;;;;22.27;64.49;100600.69;4980010;28;20030;-71
2021/09/16 00:20:26;;;;;;;7.65;6.13;;;;;;;22.20;65.38;100601.59;4979772;28;20034;-71
2021/09/16 00:22:54;;;;;;;6.90;6.30;;;;;;;21.96;66.14;100598.75;4979705;28;20030;-71
2021/09/16 00:25:23;;;;;;;6.00;5.40;;;;;;;22.27;65.11;100603.50;4980240;28;20083;-73
2021/09/16 00:27:51;;;;;;;6.10;5.50;;;;;;;22.17;65.66;100611.78;4979585;28;20045;-71
2021/09/16 00:30:23;;;;;;;6.93;6.22;;;;;;;22.18;65.97;100590.69;4978977;28;20126;-72
2021/09/16 00:32:54;;;;;;;6.70;5.68;;;;;;;22.19;66.24;100594.31;4979477;28;20532;-71
2021/09/16 00:35:25;;;;;;;8.05;5.90;;;;;;;22.18;65.73;100596.34;4979487;28;20027;-71
2021/09/16 00:37:55;;;;;;;6.47;5.40;;;;;;;22.22;65.85;100584.97;4979777;28;20030;-71
2021/09/16 00:40:26;;;;;;;5.90;5.28;;;;;;;22.21;66.13;100589.00;4979357;28;20041;-72
2021/09/16 00:42:54;;;;;;;6.00;5.50;;;;;;;22.26;65.67;100584.88;4979597;28;20481;-71
2021/09/16 00:45:22;;;;;;;5.85;5.10;;;;;;;22.29;64.01;100573.50;4979321;28;20129;-71
2021/09/16 00:47:50;;;;;;;5.20;4.60;;;;;;;22.27;64.08;100586.50;4975898;28;20561;-71
2021/09/16 00:50:22;;;;;;;8.35;4.68;;;;;;;22.23;64.54;100580.91;4976704;28;20129;-71
2021/09/16 00:52:49;;;;;;;5.30;4.72;;;;;;;22.19;65.16;100569.63;4960837;28;20031;-71
2021/09/16 00:55:20;;;;;;;5.60;5.05;;;;;;;22.21;65.33;100567.16;4993550;28;20033;-71
2021/09/16 00:57:54;;;;;;;5.43;4.93;;;;;;;22.23;64.89;100569.56;4976388;28;20432;-71
2021/09/16 01:00:23;;;;;;;7.28;5.13;;;;;;;22.20;65.20;100571.22;4976103;28;20092;-72
2021/09/16 01:02:51;;;;;;;4.75;4.07;;;;;;;22.16;64.85;100569.69;4976063;28;20114;-72
2021/09/16 01:05:20;;;;;;;4.72;4.22;;;;;;;22.20;63.97;100576.06;4976052;28;20027;-71
2021/09/16 01:07:49;;;;;;;4.90;4.50;;;;;;;22.18;64.39;100568.03;4975904;28;20064;-71
2021/09/16 01:10:21;;;;;;;4.72;4.32;;;;;;;22.13;65.69;100576.22;4976542;28;20479;-71
2021/09/16 01:12:51;;;;;;;5.38;4.88;;;;;;;22.12;65.47;100563.28;4993467;28;20062;-71
2021/09/16 01:15:19;;;;;;;6.63;4.43;;;;;;;22.09;64.20;100564.91;4976662;28;20086;-71
2021/09/16 01:17:50;;;;;;;4.82;4.53;;;;;;;22.12;64.39;100560.47;4976265;28;20038;-71
2021/09/16 01:20:18;;;;;;;4.68;4.22;;;;;;;22.01;64.88;100562.66;4976229;28;20034;-71
2021/09/16 01:22:47;;;;;;;5.25;4.50;;;;;;;21.98;65.03;100565.09;4993421;28;20353;-71
2021/09/16 01:25:15;;;;;;;5.20;4.60;;;;;;;22.00;64.73;100561.03;4976108;28;20129;-71
2021/09/16 01:27:47;;;;;;;4.78;4.38;;;;;;;22.03;65.13;100565.84;4975610;28;20046;-71
2021/09/16 01:30:18;;;;;;;5.88;5.22;;;;;;;22.00;65.07;100556.19;4975576;28;20109;-71
2021/09/16 01:32:49;;;;;;;5.38;4.30;;;;;;;21.98;65.89;100562.28;4975461;28;20114;-71
2021/09/16 01:35:19;;;;;;;5.00;4.45;;;;;;;22.00;65.31;100561.03;4975976;28;20129;-71
2021/09/16 01:37:45;;;;;;;4.63;4.20;;;;;;;21.94;65.79;100564.38;4976123;28;20368;-71
2021/09/16 01:40:11;;;;;;;5.18;4.53;;;;;;;21.97;65.33;100569.19;4975394;28;20121;-71
2021/09/16 01:42:45;;;;;;;4.28;3.97;;;;;;;21.99;65.17;100571.56;4959571;28;20045;-71
2021/09/16 01:45:18;;;;;;;5.03;4.53;;;;;;;21.94;65.05;100563.56;4975407;28;20037;-70
2021/09/16 01:47:47;;;;;;;4.88;4.57;;;;;;;21.96;64.89;100561.91;4975312;28;20531;-71
2021/09/16 01:50:17;;;;;;;4.63;3.78;;;;;;;21.92;65.03;100566.03;4959287;28;20125;-71
2021/09/16 01:52:44;;;;;;;4.30;4.00;;;;;;;21.95;64.26;100574.50;4975194;28;20018;-71
2021/09/16 01:55:11;;;;;;;3.95;3.67;;;;;;;21.94;63.59;100575.72;4975245;28;20030;-71
2021/09/16 01:57:36;;;;;;;3.78;3.47;;;;;;;21.96;62.62;100572.44;4974847;28;20037;-71
2021/09/16 02:00:06;;;;;;;5.45;4.82;;;;;;;21.94;62.42;100575.72;4975396;28;20393;-71
2021/09/16 02:02:35;;;;;;;3.85;3.50;;;;;;;21.93;61.64;100574.09;4975451;28;20064;-71
2021/09/16 02:05:03;;;;;;;3.55;3.25;;;;;;;21.89;61.18;100575.38;4974817;28;20142;-71
2021/09/16 02:07:31;;;;;;;3.97;3.67;;;;;;;21.91;60.87;100576.56;4975102;28;20069;-72
2021/09/16 02:10:02;;;;;;;3.85;3.60;;;;;;;21.89;58.72;100578.22;4975439;28;20480;-72
2021/09/16 02:12:27;;;;;;;3.45;3.00;;;;;;;21.89;60.12;100590.38;4975086;28;20473;-71
2021/09/16 02:14:56;;;;;;;3.58;3.33;;;;;;;21.93;58.66;100585.44;4975088;28;20041;-72
2021/09/16 02:17:27;;;;;;;4.00;3.20;;;;;;;21.95;59.46;100588.66;4992355;28;20030;-72
2021/09/16 02:19:55;;;;;;;4.22;3.83;;;;;;;22.03;58.98;100588.50;4974784;28;20065;-72
2021/09/16 02:22:21;;;;;;;3.20;2.97;;;;;;;22.05;60.14;100586.88;4975576;28;20342;-71
2021/09/16 02:24:48;;;;;;;3.63;3.20;;;;;;;22.09;60.57;100583.94;4974940;28;20035;-72
2021/09/16 02:27:19;;;;;;;3.95;3.63;;;;;;;22.09;61.25;100581.13;4974625;28;20069;-71
2021/09/16 02:29:45;;;;;;;3.08;2.80;;;;;;;22.11;60.54;100587.19;4974618;28;20046;-72
2021/09/16 02:32:13;;;;;;;3.17;2.97;;;;;;;22.13;60.80;100596.06;4974524;28;20523;-71
2021/09/16 02:34:39;;;;;;;3.92;3.50;;;;;;;22.09;59.76;100595.28;4974610;28;20068;-73
2021/09/16 02:37:07;;;;;;;3.78;3.42;;;;;;;22.09;58.60;100589.63;4974859;28;20058;-71
2021/09/16 02:39:38;;;;;;;3.75;3.40;;;;;;;22.12;58.91;100585.97;4974966;28;20031;-72
2021/09/16 02:42:07;;;;;;;4.60;3.17;;;;;;;22.15;58.94;100590.75;4974658;28;20087;-71
2021/09/16 02:44:37;;;;;;;3.70;3.40;;;;;;;22.21;59.43;100594.69;4974520;28;20058;-71
2021/09/16 02:47:05;;;;;;;3.90;3.60;;;;;;;22.21;59.24;100595.50;4974360;28;20042;-71
2021/09/16 02:49:36;;;;;;;4.10;3.40;;;;;;;22.22;58.52;100597.09;4974633;28;20499;-71
2021/09/16 02:52:04;;;;;;;3.45;3.15;;;;;;;22.25;56.76;100595.41;4974200;28;20034;-70
2021/09/16 02:54:30;;;;;;;3.35;3.15;;;;;;;22.22;56.53;100597.09;4974312;28;20121;-71
2021/09/16 02:56:58;;;;;;;3.38;3.08;;;;;;;22.23;56.28;100598.69;4974223;28;20037;-70
2021/09/16 02:59:27;;;;;;;3.45;3.15;;;;;;;22.29;56.79;100601.84;4974143;28;20092;-71
2021/09/16 03:01:57;;;;;;;3.75;3.45;;;;;;;22.27;56.40;100609.97;5072564;28;20038;-71
2021/09/16 03:04:28;;;;;;;4.95;3.47;;;;;;;22.26;54.73;100599.84;4974097;28;20026;-71
2021/09/16 03:06:56;;;;;;;2.80;2.58;;;;;;;22.27;54.05;100592.97;4974027;28;20034;-71
2021/09/16 03:09:24;;;;;;;2.78;2.60;;;;;;;22.28;54.10;100588.91;4974177;28;20385;-71
2021/09/16 03:11:50;;;;;;;3.22;2.97;;;;;;;22.29;53.46;100606.69;4974184;28;20073;-71
2021/09/16 03:14:21;;;;;;;3.20;2.95;;;;;;;22.33;53.69;100596.91;4974092;28;20124;-71
2021/09/16 03:16:53;;;;;;;4.75;3.20;;;;;;;22.40;52.99;100593.13;4974037;28;20022;-71
2021/09/16 03:19:24;;;;;;;3.30;3.00;;;;;;;22.34;52.78;100589.19;4974475;28;20379;-71
2021/09/16 03:21:54;;;;;;;3.65;3.00;;;;;;;22.29;53.00;100595.38;4974014;28;20022;-71
2021/09/16 03:24:22;;;;;;;5.80;3.67;;;;;;;22.27;53.15;100587.31;4973771;28;20034;-71
2021/09/16 03:26:53;;;;;;;3.25;3.00;;;;;;;22.26;52.98;100608.34;4973873;28;20550;-70
2021/09/16 03:29:18;;;;;;;3.63;3.08;;;;;;;22.25;53.88;100601.09;4973616;28;20061;-70
2021/09/16 03:31:51;;;;;;;3.17;2.92;;;;;;;22.24;52.37;100599.50;4974000;28;20377;-71
2021/09/16 03:34:18;;;;;;;3.65;3.35;;;;;;;22.21;53.30;100598.34;4973676;28;20034;-71
2021/09/16 03:36:49;;;;;;;3.40;3.10;;;;;;;22.22;53.56;100596.31;5075271;28;20037;-70
2021/09/16 03:39:17;;;;;;;3.88;3.47;;;;;;;22.23;54.81;100592.22;4973701;28;20552;-71
2021/09/16 03:41:48;;;;;;;3.20;2.97;;;;;;;22.28;55.21;100588.91;4973931;28;20099;-71
2021/09/16 03:44:16;;;;;;;3.45;3.25;;;;;;;22.30;55.63;100589.25;4974035;28;20662;-71
2021/09/16 03:46:47;;;;;;;4.47;4.13;;;;;;;22.35;54.53;100599.28;4973502;28;20034;-71
2021/09/16 03:49:18;;;;;;;4.07;3.78;;;;;;;22.35;52.96;100585.13;4973586;28;20125;-71
2021/09/16 03:51:49;;;;;;;4.65;4.15;;;;;;;22.34;52.69;100575.81;4973496;28;20145;-71
2021/09/16 03:54:20;;;;;;;3.60;3.35;;;;;;;22.33;53.30;100570.59;4973629;28;20495;-71
2021/09/16 03:56:45;;;;;;;3.08;2.75;;;;;;;22.24;52.97;100579.66;4973682;28;20382;-71
2021/09/16 03:59:11;;;;;;;4.70;3.38;;;;;;;22.19;55.03;100597.16;4973546;28;20049;-71
2021/09/16 04:01:41;;;;;;;3.03;2.72;;;;;;;22.13;55.18;100582.69;4973898;28;20027;-71
2021/09/16 04:04:09;;;;;;;3.17;2.97;;;;;;;22.15;56.78;100591.53;4973374;28;20035;-71
2021/09/16 04:06:37;;;;;;;4.07;3.78;;;;;;;22.11;55.52;100585.16;4973395;28;20088;-71
2021/09/16 04:09:08;;;;;;;4.35;3.95;;;;;;;22.09;53.74;100586.78;4973244;28;20042;-71
2021/09/16 04:11:34;;;;;;;3.45;3.25;;;;;;;22.00;52.80;100586.53;4973578;28;20047;-71
2021/09/16 04:14:04;;;;;;;3.17;2.97;;;;;;;21.89;52.81;100573.38;4973192;28;20429;-72
2021/09/16 04:16:32;;;;;;;2.65;2.45;;;;;;;21.90;52.46;100586.31;4973226;28;20117;-71
2021/09/16 04:19:03;;;;;;;3.47;3.05;;;;;;;21.91;52.49;100581.44;4973732;28;20026;-71
2021/09/16 04:21:33;;;;;;;2.85;2.65;;;;;;;21.88;53.22;100576.63;4974096;28;20026;-72
2021/09/16 04:24:01;;;;;;;3.55;3.00;;;;;;;21.80;52.79;100580.81;4976476;28;20035;-71
2021/09/16 04:26:29;;;;;;;3.00;2.80;;;;;;;21.82;52.78;100584.81;4972336;28;20026;-71
2021/09/16 04:29:01;;;;;;;3.55;2.70;;;;;;;21.83;53.91;100583.56;4976365;28;20404;-72
2021/09/16 04:31:32;;;;;;;3.00;2.80;;;;;;;21.84;54.78;100582.38;4976756;28;20046;-71
2021/09/16 04:34:03;;;;;;;3.47;2.67;;;;;;;21.85;53.33;100577.50;4976493;28;20037;-72
2021/09/16 04:36:34;;;;;;;3.55;3.03;;;;;;;21.83;53.89;100586.41;4976750;28;20551;-71
2021/09/16 04:39:03;;;;;;;3.88;2.70;;;;;;;21.79;53.92;100582.84;4976825;28;20117;-71
2021/09/16 04:41:32;;;;;;;4.47;3.05;;;;;;;21.74;54.08;100577.69;4976408;28;20065;-71
2021/09/16 04:43:58;;;;;;;3.58;3.03;;;;;;;21.59;54.12;100560.13;4977293;28;20121;-72
2021/09/16 04:46:29;;;;;;;2.75;2.55;;;;;;;21.71;53.95;100575.69;4976542;28;20034;-69
2021/09/16 04:49:02;;;;;;;3.75;3.20;;;;;;;21.63;54.37;100568.56;4976737;28;20465;-69
2021/09/16 04:51:33;;;;;;;;;;;;;;;21.74;56.30;100569.19;4976522;28;20505;-69
2021/09/16 04:54:01;;;;;;;4.95;2.95;;;;;;;21.68;55.64;100573.75;4975952;28;19921;-69
2021/09/16 04:56:29;;;;;;;3.97;3.67;;;;;;;21.71;54.43;100578.53;4976223;28;20034;-70
2021/09/16 04:58:57;;;;;;;5.20;3.38;;;;;;;21.70;53.89;100580.56;4976634;28;20092;-70
2021/09/16 05:01:26;;;;;;;4.00;3.17;;;;;;;21.73;55.97;100593.06;4976349;28;20057;-70
2021/09/16 05:03:54;;;;;;;3.92;3.20;;;;;;;21.85;55.72;100603.78;4976030;28;20037;-69
2021/09/16 05:06:23;;;;;;;3.08;2.88;;;;;;;21.68;54.30;100602.06;4975988;28;20121;-70
2021/09/16 05:08:51;;;;;;;5.10;3.25;;;;;;;21.62;54.69;100603.75;4975898;28;20026;-70
2021/09/16 05:11:17;;;;;;;3.45;3.20;;;;;;;21.73;54.98;100610.03;4976039;28;20037;-70
2021/09/16 05:13:47;;;;;;;3.47;3.17;;;;;;;21.81;54.29;100616.41;4976243;28;20368;-70
2021/09/16 05:16:16;;;;;;;3.38;3.08;;;;;;;21.88;54.69;100622.75;4975836;28;20484;-71
2021/09/16 05:18:46;;;;;;;3.22;2.92;;;;;;;21.97;55.41;100620.16;4976101;28;20349;-70
2021/09/16 05:21:14;;;;;;;4.00;3.30;;;;;;;22.03;54.36;100628.19;4976285;28;20443;-71
2021/09/16 05:23:45;;;;;;;3.63;3.33;;;;;;;22.07;53.00;100623.25;4975947;28;20022;-70
2021/09/16 05:26:13;;;;;;;3.80;2.80;;;;;;;22.12;53.52;100622.81;4975649;28;20033;-71
2021/09/16 05:28:43;;;;;;;7.35;3.10;;;;;;;22.07;53.40;100615.56;4975154;28;20053;-70
2021/09/16 05:31:11;;;;;;;3.22;3.03;;;;;;;22.29;54.22;100627.34;4975912;28;20469;-71
2021/09/16 05:33:37;;;;;;;3.85;3.45;;;;;;;22.41;53.95;100621.03;4974704;28;20117;-71
2021/09/16 05:36:08;;;;;;;5.70;5.20;;;;;;;22.51;53.30;100618.44;4975204;28;20061;-71
2021/09/16 05:38:39;;;;;;;31.33;28.15;;;;;;;22.61;51.77;100614.59;4975542;28;20030;-71
2021/09/16 05:41:07;;;;;;;40.88;36.78;;;;;;;22.78;51.23;100621.16;4975292;28;20450;-71
2021/09/16 05:43:35;;;;;;;35.80;32.13;;;;;;;22.91;52.18;100620.09;4975160;28;20034;-70
2021/09/16 05:46:04;;;;;;;23.13;20.88;;;;;;;23.10;50.54;100626.19;4974834;28;20030;-71
2021/09/16 05:48:34;;;;;;;16.05;14.43;;;;;;;23.34;49.77;100619.16;4974901;28;20037;-71
2021/09/16 05:51:03;;;;;;;17.75;14.68;;;;;;;23.62;49.31;100633.94;4974808;28;20057;-71
2021/09/16 05:53:31;;;;;;;13.73;12.25;;;;;;;23.92;48.32;100647.84;4974758;28;20030;-70
2021/09/16 05:55:59;;;;;;;11.20;10.18;;;;;;;24.12;47.29;100639.22;4974955;28;20030;-71
2021/09/16 05:58:27;;;;;;;6.25;5.65;;;;;;;24.50;47.36;100645.16;4974832;28;20034;-71
2021/09/16 06:00:58;;;;;;;7.03;4.10;;;;;;;24.78;47.19;100654.16;4974946;28;20056;-71
2021/09/16 06:03:29;;;;;;;5.65;4.32;;;;;;;25.02;46.61;100651.81;4975027;28;20034;-71
2021/09/16 06:06:00;;;;;;;6.60;5.30;;;;;;;25.17;46.63;100649.38;4974740;28;20474;-71
2021/09/16 06:08:28;;;;;;;5.10;4.60;;;;;;;25.26;45.99;100653.19;4974546;28;20476;-71
2021/09/16 06:10:56;;;;;;;6.05;4.35;;;;;;;25.43;46.17;100656.72;4974843;28;20039;-71
2021/09/16 06:13:27;;;;;;;5.07;3.95;;;;;;;25.37;46.61;100657.75;4974377;28;20062;-71
2021/09/16 06:15:58;;;;;;;4.20;3.90;;;;;;;25.57;46.08;100667.69;4991578;28;20026;-71
2021/09/16 06:18:25;;;;;;;5.45;3.88;;;;;;;25.69;46.57;100668.94;4974245;28;20023;-71
2021/09/16 06:20:56;;;;;;;5.78;3.63;;;;;;;25.67;46.34;100668.56;4974540;28;20105;-70
2021/09/16 06:23:22;;;;;;;3.92;3.50;;;;;;;26.01;46.10;100673.63;4973483;28;20128;-71
2021/09/16 06:25:47;;;;;;;4.13;3.70;;;;;;;26.25;45.77;100664.69;4958046;28;20042;-71
2021/09/16 06:28:13;;;;;;;5.35;3.55;;;;;;;26.47;44.90;100659.84;4974048;28;20033;-71
2021/09/16 06:30:39;;;;;;;6.15;3.67;;;;;;;26.80;44.75;100654.63;4974116;28;20054;-71
2021/09/16 06:33:04;;;;;;;4.38;3.92;;;;;;;27.09;44.02;100665.78;4973776;28;20027;-71
2021/09/16 06:35:30;;;;;;;5.75;3.55;;;;;;;27.00;44.45;100671.41;4974187;28;20033;-71
2021/09/16 06:37:55;;;;;;;5.72;4.22;;;;;;;27.20;44.32;100673.16;4973970;28;20115;-71
2021/09/16 06:40:21;;;;;;;6.53;3.75;;;;;;;27.23;44.33;100673.03;4973907;28;20113;-71
2021/09/16 06:42:49;;;;;;;4.00;3.65;;;;;;;27.50;44.25;100672.38;4974442;28;20046;-70
2021/09/16 06:45:19;;;;;;;3.58;3.28;;;;;;;27.48;44.26;100660.63;4973024;28;20030;-71
2021/09/16 06:47:45;;;;;;;5.28;3.67;;;;;;;27.57;44.86;100668.44;4973983;28;20030;-71
2021/09/16 06:50:13;;;;;;;3.63;3.30;;;;;;;27.82;44.11;100676.06;4973797;28;20087;-71
2021/09/16 06:52:42;;;;;;;4.55;3.03;;;;;;;28.14;43.73;100684.13;4974300;28;20354;-71
2021/09/16 06:55:08;;;;;;;4.00;3.60;;;;;;;28.39;42.99;100688.00;4973871;28;20031;-70
2021/09/16 06:57:39;;;;;;;4.65;3.35;;;;;;;28.71;42.54;100678.84;4974139;28;20125;-71
2021/09/16 07:00:08;;;;;;;4.03;3.28;;;;;;;28.60;42.71;100667.03;4974212;28;20096;-70
2021/09/16 07:02:36;;;;;;;4.07;3.78;;;;;;;28.65;42.72;100672.13;4974606;28;20027;-71
2021/09/16 07:05:09;;;;;;;3.47;3.15;;;;;;;28.62;42.48;100673.09;4990860;28;20113;-71
2021/09/16 07:07:40;;;;;;;4.07;3.70;;;;;;;29.06;41.48;100681.38;4973691;28;20476;-70
2021/09/16 07:10:10;;;;;;;5.07;3.95;;;;;;;28.99;41.17;100678.06;4973504;28;20034;-70
2021/09/16 07:12:38;;;;;;;2.80;2.63;;;;;;;29.31;39.91;100671.63;4973603;28;20044;-71
2021/09/16 07:15:09;;;;;;;3.70;3.08;;;;;;;28.96;40.23;100676.94;4973797;28;20030;-70
2021/09/16 07:17:35;;;;;;;5.07;3.05;;;;;;;29.28;39.83;100669.72;4974202;28;20461;-70
2021/09/16 07:20:06;;;;;;;2.88;2.58;;;;;;;30.02;39.57;100670.25;4973903;28;20023;-71
2021/09/16 07:22:34;;;;;;;6.53;5.50;;;;;;;29.00;40.01;100668.97;4973644;28;20038;-70
2021/09/16 07:25:04;;;;;;;6.43;4.72;;;;;;;29.44;39.41;100665.69;4990674;28;20397;-70
2021/09/16 07:27:36;;;;;;;5.07;3.75;;;;;;;29.68;39.12;100662.94;4973450;28;20116;-70
2021/09/16 07:30:04;;;;;;;5.68;3.42;;;;;;;28.99;40.80;100641.63;4973306;28;20046;-71
2021/09/16 07:32:33;;;;;;;6.95;5.75;;;;;;;28.75;42.08;100649.22;4973898;28;20027;-70
2021/09/16 07:35:01;;;;;;;6.72;5.63;;;;;;;28.00;43.77;100644.66;4973604;28;20179;-70
2021/09/16 07:37:29;;;;;;;7.60;5.65;;;;;;;27.72;44.06;100645.84;4973827;28;20058;-70
2021/09/16 07:40:00;;;;;;;6.20;5.45;;;;;;;27.42;45.38;100639.63;4973742;28;20034;-70
2021/09/16 07:42:31;;;;;;;6.10;5.32;;;;;;;27.99;44.03;100639.41;4973609;28;20030;-71
2021/09/16 07:45:00;;;;;;;8.35;5.10;;;;;;;27.99;43.81;100634.50;4973335;28;20030;-71
2021/09/16 07:47:28;;;;;;;6.00;5.18;;;;;;;28.34;43.80;100637.94;4973264;28;20464;-71
2021/09/16 07:49:56;;;;;;;8.48;4.70;;;;;;;28.50;43.25;100628.25;4973165;28;20026;-70
2021/09/16 07:52:21;;;;;;;8.05;4.68;;;;;;;28.10;44.18;100645.47;4973445;28;20031;-70
2021/09/16 07:54:50;;;;;;;5.80;3.85;;;;;;;28.13;44.22;100645.34;4973413;28;20045;-71
2021/09/16 07:57:19;;;;;;;8.00;4.60;;;;;;;28.11;44.37;100642.13;4976538;28;20034;-71
2021/09/16 07:59:47;;;;;;;5.03;4.60;;;;;;;27.99;45.09;100637.34;4976741;28;20033;-71
2021/09/16 08:02:14;;;;;;;5.10;4.53;;;;;;;28.78;43.09;100631.09;4976916;28;20030;-71
2021/09/16 08:04:42;;;;;;;3.70;3.40;;;;;;;29.45;41.90;100627.16;4994062;28;20393;-71
2021/09/16 08:07:10;;;;;;;5.90;4.45;;;;;;;29.09;42.03;100630.94;4976685;28;20088;-71
2021/09/16 08:09:38;;;;;;;4.10;3.60;;;;;;;29.43;41.57;100630.50;4976514;28;20073;-71
2021/09/16 08:12:09;;;;;;;3.88;3.30;;;;;;;30.07;40.50;100638.03;4976605;28;20030;-71
2021/09/16 08:14:40;;;;;;;5.88;3.90;;;;;;;29.58;40.58;100630.66;4976542;28;20031;-70
2021/09/16 08:17:08;;;;;;;3.63;3.33;;;;;;;30.53;39.19;100629.16;4976341;28;20022;-71
2021/09/16 08:19:41;;;;;;;4.25;3.95;;;;;;;30.67;38.28;100634.09;4976345;28;20096;-71
2021/09/16 08:22:09;;;;;;;4.32;4.00;;;;;;;29.64;40.00;100645.91;4976263;28;20019;-71
2021/09/16 08:24:37;;;;;;;5.38;4.35;;;;;;;30.08;38.93;100642.50;4976305;28;20022;-71
2021/09/16 08:27:04;;;;;;;4.25;3.75;;;;;;;30.30;37.74;100645.09;4976297;28;20062;-70
2021/09/16 08:29:32;;;;;;;6.22;3.28;;;;;;;30.25;36.14;100646.53;4975870;28;20065;-71
2021/09/16 08:31:58;;;;;;;3.97;3.58;;;;;;;30.38;35.95;100645.53;4976692;28;20026;-71
2021/09/16 08:34:28;;;;;;;4.05;3.13;;;;;;;31.22;35.35;100645.13;4976372;28;20099;-70
2021/09/16 08:36:59;;;;;;;3.60;3.20;;;;;;;31.34;33.48;100643.25;4976213;28;20042;-71
2021/09/16 08:39:27;;;;;;;3.90;3.47;;;;;;;31.65;33.31;100648.47;4976769;28;20034;-71
2021/09/16 08:41:57;;;;;;;3.88;3.58;;;;;;;31.37;34.20;100650.06;4976850;28;20034;-71
2021/09/16 08:44:28;;;;;;;4.07;3.75;;;;;;;32.15;33.46;100648.47;4976191;28;20488;-70
2021/09/16 08:46:56;;;;;;;4.40;3.97;;;;;;;32.36;32.91;100655.06;4976161;28;20029;-71
2021/09/16 08:49:22;;;;;;;4.47;4.03;;;;;;;32.64;32.33;100640.19;4975935;28;20127;-71
2021/09/16 08:51:48;;;;;;;5.30;3.88;;;;;;;32.51;32.08;100640.59;4976031;28;20092;-71
2021/09/16 08:54:19;;;;;;;4.82;4.43;;;;;;;31.92;33.01;100637.94;4976296;28;20240;-71
2021/09/16 08:56:48;;;;;;;4.57;3.80;;;;;;;31.33;34.34;100627.31;4975950;28;20381;-71
2021/09/16 08:59:14;;;;;;;5.88;4.88;;;;;;;31.79;33.05;100624.63;4975978;28;20053;-70
2021/09/16 09:01:42;;;;;;;4.75;3.83;;;;;;;32.74;30.35;100630.91;4976290;28;20453;-71
2021/09/16 09:04:12;;;;;;;5.05;3.88;;;;;;;31.75;32.82;100641.31;4975933;28;20030;-71
2021/09/16 09:06:43;;;;;;;3.95;3.63;;;;;;;32.90;31.00;100646.81;4976068;28;20049;-71
2021/09/16 09:09:16;;;;;;;4.25;3.40;;;;;;;31.87;29.78;100635.75;4975231;28;20034;-71
2021/09/16 09:11:52;;;;;;;;;;;;;;;32.11;30.00;100638.44;4976809;28;20031;-72
2021/09/16 09:14:23;;;;;;;5.35;4.03;;;;;;;31.84;30.19;100639.63;4975621;28;19913;-71
2021/09/16 09:16:53;;;;;;;3.47;3.17;;;;;;;31.86;29.63;100637.84;4975346;28;20042;-71
2021/09/16 09:19:24;;;;;;;3.97;3.58;;;;;;;31.77;30.07;100637.94;4975392;28;20042;-71
2021/09/16 09:21:57;;;;;;;6.07;3.78;;;;;;;32.24;28.43;100636.81;4975429;28;20022;-71
2021/09/16 09:24:36;;;;;;;5.10;4.10;;;;;;;32.44;28.38;100635.25;4992994;28;20026;-71
2021/09/16 09:27:27;;;;;;;4.28;3.90;;;;;;;32.39;28.15;100636.78;4975463;28;20072;-71
2021/09/16 09:30:11;;;;;;;5.68;3.70;;;;;;;32.61;28.22;100629.72;4975396;28;20377;-71
2021/09/16 09:32:50;;;;;;;4.45;4.05;;;;;;;33.20;28.13;100630.09;4975323;28;20030;-71
2021/09/16 09:35:39;;;;;;;3.95;3.03;;;;;;;33.79;27.64;100622.97;4975840;28;20030;-71
2021/09/16 09:38:14;;;;;;;4.78;3.67;;;;;;;33.91;27.86;100623.84;4975334;28;20031;-71
2021/09/16 09:40:45;;;;;;;4.53;3.60;;;;;;;34.06;28.03;100618.72;4975705;28;20423;-71
2021/09/16 09:43:24;;;;;;;5.05;4.40;;;;;;;34.59;26.94;100612.13;4975152;28;20035;-72
2021/09/16 09:46:05;;;;;;;6.50;4.00;;;;;;;34.02;27.06;100580.63;4975143;28;20035;-71
2021/09/16 09:48:39;;;;;;;3.88;3.58;;;;;;;33.96;27.18;100592.16;4975047;28;20034;-72
2021/09/16 09:51:11;;;;;;;3.53;3.22;;;;;;;34.01;28.14;100587.72;4975059;28;20034;-72
2021/09/16 09:53:42;;;;;;;4.22;3.83;;;;;;;34.34;27.85;100602.28;4975341;28;20053;-71
2021/09/16 09:56:28;;;;;;;7.30;3.83;;;;;;;33.60;29.77;100593.72;4975347;28;20087;-71
2021/09/16 09:58:59;;;;;;;4.22;3.55;;;;;;;34.07;29.30;100597.97;4974834;28;20030;-71
2021/09/16 10:01:32;;;;;;;4.35;3.50;;;;;;;34.29;28.60;100603.06;4975168;28;20039;-71
2021/09/16 10:04:18;;;;;;;4.55;4.00;;;;;;;34.81;27.70;100608.50;4974570;28;20042;-72
2021/09/16 10:06:49;;;;;;;4.70;3.13;;;;;;;35.43;27.21;100612.28;4973666;28;20031;-72
2021/09/16 10:09:19;;;;;;;4.07;3.22;;;;;;;34.56;27.05;100618.94;4974708;28;20039;-71
2021/09/16 10:11:49;;;;;;;3.55;2.95;;;;;;;34.40;27.99;100620.44;4974525;28;20111;-72
2021/09/16 10:14:18;;;;;;;3.88;3.50;;;;;;;34.62;28.16;100614.00;4973779;28;20031;-71
2021/09/16 10:16:44;;;;;;;4.15;3.42;;;;;;;34.34;27.58;100607.28;4974018;28;20041;-70
2021/09/16 10:19:13;;;;;;;4.25;3.13;;;;;;;33.45;29.44;100605.44;4972711;28;20031;-70
2021/09/16 10:21:39;;;;;;;3.97;3.28;;;;;;;32.93;30.70;100588.19;4973718;28;20034;-73
2021/09/16 10:24:17;;;;;;;5.03;3.30;;;;;;;32.72;31.57;100598.94;4974554;28;20544;-71
2021/09/16 10:26:51;;;;;;;3.10;2.80;;;;;;;32.53;32.66;100607.09;4974318;28;20043;-72
2021/09/16 10:29:29;;;;;;;3.05;2.75;;;;;;;32.86;31.97;100594.34;4971642;28;20060;-72
2021/09/16 10:32:06;;;;;;;3.35;3.05;;;;;;;32.97;32.18;100599.47;4974764;28;20100;-71
2021/09/16 10:34:43;;;;;;;3.03;2.80;;;;;;;32.71;33.12;100594.47;4975023;28;20034;-71
2021/09/16 10:37:18;;;;;;;3.20;2.95;;;;;;;33.29;32.00;100606.84;4974645;28;20134;-71
2021/09/16 10:39:47;;;;;;;2.83;2.63;;;;;;;33.58;31.18;100607.88;4975119;28;20536;-71
2021/09/16 10:42:14;;;;;;;3.92;3.22;;;;;;;33.72;30.50;100606.13;4974321;28;20088;-71
2021/09/16 10:44:46;;;;;;;4.60;2.90;;;;;;;33.82;30.11;100611.19;4974243;28;20031;-71
2021/09/16 10:47:20;;;;;;;3.38;2.30;;;;;;;33.57;30.36;100618.63;4974380;28;20057;-71
2021/09/16 10:49:50;;;;;;;3.05;2.65;;;;;;;33.69;29.81;100610.84;4974240;28;20065;-71
2021/09/16 10:52:24;;;;;;;3.45;2.70;;;;;;;33.43;29.43;100621.66;4974461;28;20465;-72
2021/09/16 10:54:55;;;;;;;3.00;2.80;;;;;;;33.57;29.36;100612.06;4974161;28;20062;-71
2021/09/16 10:57:35;;;;;;;6.10;3.90;;;;;;;34.23;28.48;100616.69;4991656;28;20056;-71
2021/09/16 11:00:16;;;;;;;2.78;2.20;;;;;;;34.33;29.17;100623.03;4974259;28;20493;-72
2021/09/16 11:02:53;;;;;;;3.55;2.75;;;;;;;34.06;29.46;100628.16;4974776;28;20030;-71
2021/09/16 11:05:23;;;;;;;3.60;2.15;;;;;;;34.26;28.22;100614.88;4974665;28;20120;-71
2021/09/16 11:07:59;;;;;;;4.20;2.50;;;;;;;33.72;27.58;100612.72;4991665;28;20029;-70
2021/09/16 11:10:28;;;;;;;2.72;2.15;;;;;;;33.41;26.42;100609.81;4974451;28;20121;-70
2021/09/16 11:13:18;;;;;;;1.70;1.70;;;;;;;33.03;26.19;100615.53;4974219;28;20064;-72
2021/09/16 11:15:55;;;;;;;1.65;1.55;;;;;;;33.86;23.98;100614.63;4983660;28;20042;-71
2021/09/16 11:18:22;;;;;;;2.00;1.80;;;;;;;34.13;24.14;100618.22;4990888;28;20030;-74
2021/09/16 11:20:54;;;;;;;3.17;1.73;;;;;;;33.48;24.04;100613.06;4991982;28;20034;-73
2021/09/16 11:23:19;;;;;;;2.20;2.00;;;;;;;33.53;25.43;100617.28;4974075;28;20057;-72
2021/09/16 11:25:51;;;;;;;1.75;1.65;;;;;;;33.63;25.46;100615.78;4974252;28;20070;-73
2021/09/16 11:28:17;;;;;;;2.28;1.20;;;;;;;33.17;24.60;100613.00;4973787;28;20061;-70
2021/09/16 11:30:45;;;;;;;1.55;1.45;;;;;;;33.68;25.50;100612.16;4973462;28;20022;-71
2021/09/16 11:33:14;;;;;;;2.10;2.00;;;;;;;34.02;25.04;100613.16;4974476;28;20153;-74
2021/09/16 11:35:42;;;;;;;2.47;2.28;;;;;;;33.98;25.44;100617.59;4974563;28;20121;-74